Time;durP1;ratioP1;P1;durP2;ratioP2;P2;SDS_P1;SDS_P2;PMS_P1;PMS_P2;Temp;Humidity;BMP_temperature;BMP_pressure;BME280_temperature;BME280_humidity;BME280_pressure;Samples;Min_cycle;Max_cycle;Signal;HPM_P1;HPM_P2
2021/05/13 00:01:05;;;;;;;46.35;30.25;;;;;;;9.82;91.74;94585.25;5011666;28;20050;-75
2021/05/13 00:03:31;;;;;;;36.85;25.17;;;;;;;9.20;92.41;94569.53;5010114;28;20042;-75
2021/05/13 00:05:57;;;;;;;48.00;29.15;;;;;;;9.72;92.18;94620.06;5010399;28;20037;-75
2021/05/13 00:08:22;;;;;;;39.00;26.00;;;;;;;9.34;92.27;94556.94;5012302;28;20026;-74
2021/05/13 00:10:47;;;;;;;38.95;26.50;;;;;;;9.77;91.88;94605.88;5010144;28;20042;-75
2021/05/13 00:13:13;;;;;;;31.48;24.00;;;;;;;9.74;93.63;94627.75;5009643;28;20372;-76
2021/05/13 00:15:41;;;;;;;29.35;23.38;;;;;;;9.44;94.16;94602.84;5011175;28;20046;-75
2021/05/13 00:18:08;;;;;;;31.33;24.02;;;;;;;9.44;93.65;94578.97;5011519;28;20028;-75
2021/05/13 00:20:41;;;;;;;33.28;25.13;;;;;;;10.09;93.52;94642.63;5011096;28;20048;-75
2021/05/13 00:23:07;;;;;;;32.30;22.95;;;;;;;9.20;94.35;94588.13;5009489;28;20125;-74
2021/05/13 00:25:33;;;;;;;29.38;21.98;;;;;;;8.94;94.27;94566.03;5011080;28;20113;-76
2021/05/13 00:27:58;;;;;;;28.33;23.13;;;;;;;9.17;95.37;94590.63;5009601;28;20070;-75
2021/05/13 00:30:24;;;;;;;32.25;23.70;;;;;;;9.42;95.01;94618.28;5009667;28;20093;-75
2021/05/13 00:32:50;;;;;;;39.03;24.73;;;;;;;9.04;95.24;94571.84;5012971;28;20037;-76
2021/05/13 00:35:17;;;;;;;35.17;25.67;;;;;;;9.09;94.76;94558.44;5011439;28;20065;-75
2021/05/13 00:37:43;;;;;;;28.92;23.60;;;;;;;8.82;95.26;94532.91;5011223;28;20103;-76
2021/05/13 00:40:11;;;;;;;37.15;23.33;;;;;;;8.85;95.10;94523.56;5009562;28;20034;-76
2021/05/13 00:42:37;;;;;;;31.00;22.38;;;;;;;9.14;94.55;94552.19;5010365;28;20046;-75
2021/05/13 00:45:08;;;;;;;31.17;23.25;;;;;;;9.58;95.69;94633.50;5009694;28;20026;-75
2021/05/13 00:47:36;;;;;;;30.67;23.77;;;;;;;9.14;94.00;94517.72;5013253;28;20064;-75
2021/05/13 00:50:04;;;;;;;31.30;25.13;;;;;;;9.58;92.72;94566.34;5009579;28;20042;-76
2021/05/13 00:52:30;;;;;;;32.60;24.98;;;;;;;9.69;93.79;94602.13;5008821;28;20077;-72
2021/05/13 00:54:55;;;;;;;35.05;25.58;;;;;;;9.84;92.64;94564.47;5010398;28;20414;-75
2021/05/13 00:57:22;;;;;;;34.83;24.10;;;;;;;10.27;92.18;94592.13;5009256;28;20137;-75
2021/05/13 00:59:49;;;;;;;36.55;27.00;;;;;;;10.18;91.30;94576.16;5011709;28;20435;-73
2021/05/13 01:02:14;;;;;;;34.17;25.48;;;;;;;10.49;90.73;94589.28;5008617;28;20566;-76
2021/05/13 01:04:40;;;;;;;32.67;24.83;;;;;;;10.04;89.98;94551.66;5010081;28;20125;-75
2021/05/13 01:07:05;;;;;;;27.48;22.65;;;;;;;9.89;89.41;94495.25;5008728;28;20038;-75
2021/05/13 01:09:32;;;;;;;30.27;23.95;;;;;;;10.17;89.24;94526.78;5009179;28;20042;-74
2021/05/13 01:12:01;;;;;;;32.13;23.08;;;;;;;10.56;89.50;94539.06;5010226;28;20029;-72
2021/05/13 01:19:34;;;;;;;38.88;24.77;;;;;;;11.36;88.60;94608.41;5010381;28;20062;-73
2021/05/13 01:22:00;;;;;;;33.45;25.00;;;;;;;10.74;88.32;94496.44;5008903;28;20042;-76
2021/05/13 01:24:26;;;;;;;28.17;22.88;;;;;;;11.18;87.64;94540.38;5008196;28;20046;-73
2021/05/13 01:26:52;;;;;;;31.40;23.98;;;;;;;11.28;87.71;94541.88;5010855;28;20026;-75
2021/05/13 01:29:21;;;;;;;36.83;26.40;;;;;;;11.35;87.23;94560.78;5009421;28;20062;-72
2021/05/13 01:31:48;;;;;;;43.65;28.27;;;;;;;11.19;87.54;94509.97;5008447;28;20495;-73
2021/05/13 01:34:13;;;;;;;30.55;22.95;;;;;;;11.15;86.93;94499.19;5007964;28;20458;-74
2021/05/13 01:36:39;;;;;;;27.30;22.13;;;;;;;11.19;85.68;94508.09;5008341;28;20137;-74
2021/05/13 01:39:07;;;;;;;30.05;21.67;;;;;;;11.59;86.37;94573.47;5008710;28;20026;-73
2021/05/13 01:41:34;;;;;;;27.02;21.30;;;;;;;11.62;85.37;94605.59;5010797;28;20025;-74
2021/05/13 01:43:59;;;;;;;29.50;22.83;;;;;;;11.24;85.77;94524.97;5007616;28;20037;-74
2021/05/13 01:46:25;;;;;;;25.35;20.65;;;;;;;11.31;86.09;94536.69;5008432;28;20525;-73
2021/05/13 01:48:50;;;;;;;30.75;22.95;;;;;;;11.53;85.23;94590.75;5009385;28;20038;-74
2021/05/13 01:51:15;;;;;;;26.77;21.45;;;;;;;11.05;86.51;94539.47;5008137;28;20044;-72
2021/05/13 01:53:42;;;;;;;28.40;21.48;;;;;;;11.46;86.11;94577.94;5009909;28;20093;-72
2021/05/13 01:56:09;;;;;;;22.98;20.58;;;;;;;10.93;85.43;94550.03;5008041;28;20034;-77
2021/05/13 01:58:35;;;;;;;30.73;22.92;;;;;;;10.39;87.02;94510.66;5008249;28;20030;-75
2021/05/13 02:01:00;;;;;;;30.88;22.92;;;;;;;10.86;87.12;94552.41;5009368;28;20041;-75
2021/05/13 02:03:26;;;;;;;39.15;24.05;;;;;;;11.18;87.30;94573.09;5007396;28;20041;-76
2021/05/13 02:05:52;;;;;;;35.88;24.67;;;;;;;11.01;87.56;94551.88;5010260;28;20025;-76
2021/05/13 02:08:18;;;;;;;25.08;21.30;;;;;;;10.39;86.92;94529.28;5007800;28;20380;-76
2021/05/13 02:10:43;;;;;;;31.48;21.90;;;;;;;11.03;87.66;94586.16;5009026;28;20042;-75
2021/05/13 02:13:09;;;;;;;33.72;22.77;;;;;;;11.11;87.72;94580.03;5008634;28;20034;-74
2021/05/13 02:15:34;;;;;;;55.42;29.38;;;;;;;10.82;87.71;94528.31;5008956;28;20100;-75
2021/05/13 02:18:00;;;;;;;29.85;22.88;;;;;;;11.23;87.61;94585.44;5009120;28;20475;-75
2021/05/13 02:20:26;;;;;;;29.83;22.63;;;;;;;10.73;87.49;94503.63;5009740;28;20018;-74
2021/05/13 02:22:52;;;;;;;33.35;23.85;;;;;;;11.33;86.71;94571.75;5007143;28;20045;-74
2021/05/13 02:25:17;;;;;;;44.47;25.13;;;;;;;11.37;87.47;94585.22;5008235;28;20038;-74
2021/05/13 02:27:43;;;;;;;36.78;24.48;;;;;;;10.99;86.75;94510.72;5006348;28;20529;-75
2021/05/13 02:30:14;;;;;;;29.27;22.48;;;;;;;10.66;86.86;94466.91;5008642;28;20495;-75
2021/05/13 02:32:40;;;;;;;27.25;22.00;;;;;;;10.77;86.12;94515.22;5009224;28;20026;-76
2021/05/13 02:35:07;;;;;;;31.67;23.02;;;;;;;10.69;86.30;94489.41;5009068;28;20038;-74
2021/05/13 02:37:33;;;;;;;39.53;24.83;;;;;;;10.87;86.33;94532.69;5007691;28;20042;-74
2021/05/13 02:39:58;;;;;;;33.63;23.23;;;;;;;11.13;86.51;94559.19;5008971;28;20388;-75
2021/05/13 02:42:24;;;;;;;45.40;25.65;;;;;;;10.59;86.73;94479.13;5008527;28;20092;-74
2021/05/13 02:44:49;;;;;;;42.13;24.90;;;;;;;10.57;86.39;94482.13;5014233;28;20037;-75
2021/05/13 02:47:15;;;;;;;47.05;27.17;;;;;;;10.63;86.94;94498.66;5011321;28;20038;-75
2021/05/13 02:49:40;;;;;;;34.47;24.52;;;;;;;10.91;87.05;94533.63;5012628;28;20058;-75
2021/05/13 02:52:06;;;;;;;41.88;26.13;;;;;;;10.45;86.31;94492.66;5011357;28;20034;-75
2021/05/13 02:54:31;;;;;;;47.65;27.00;;;;;;;10.87;86.75;94549.44;5011020;28;20042;-74
2021/05/13 02:56:57;;;;;;;38.35;22.67;;;;;;;10.77;86.58;94538.38;5011918;28;20113;-75
2021/05/13 02:59:29;;;;;;;34.30;23.23;;;;;;;9.93;87.51;94430.84;5013980;28;20022;-74
2021/05/13 03:01:55;;;;;;;32.17;22.92;;;;;;;10.82;87.53;94541.63;5012255;28;20034;-75
2021/05/13 03:04:20;;;;;;;33.33;23.20;;;;;;;10.55;88.08;94486.22;5010677;28;20046;-75
2021/05/13 03:06:47;;;;;;;31.90;23.05;;;;;;;10.65;87.30;94497.28;5011211;28;20091;-74
2021/05/13 03:09:15;;;;;;;34.13;23.35;;;;;;;10.25;87.34;94443.63;5011299;28;20041;-74
2021/05/13 03:11:40;;;;;;;26.77;20.05;;;;;;;10.12;86.68;94447.22;5013462;28;20029;-75
2021/05/13 03:14:06;;;;;;;26.00;19.98;;;;;;;10.72;86.91;94549.97;5010600;28;20038;-74
2021/05/13 03:16:31;;;;;;;27.30;21.30;;;;;;;10.41;88.22;94507.69;5012351;28;20450;-75
2021/05/13 03:18:57;;;;;;;23.88;18.30;;;;;;;10.29;87.37;94486.31;5011070;28;20677;-74
2021/05/13 03:21:29;;;;;;;25.50;20.13;;;;;;;10.06;87.85;94461.78;5012447;28;20038;-74
2021/05/13 03:27:11;;;;;;;26.05;20.08;;;;;;;10.90;87.98;94548.81;5014553;28;20068;-75
2021/05/13 03:29:11;;;;;;;22.63;19.88;;;;;;;10.08;87.53;94439.13;5006697;28;20085;-74
2021/05/13 03:31:36;;;;;;;26.70;19.77;;;;;;;10.49;87.62;94472.28;5011090;28;20510;-73
2021/05/13 03:34:02;;;;;;;27.13;21.85;;;;;;;10.75;86.86;94512.09;5011850;28;20621;-75
2021/05/13 03:36:30;;;;;;;23.75;20.00;;;;;;;10.80;87.25;94514.56;5010701;28;20503;-74
2021/05/13 03:38:56;;;;;;;24.70;19.25;;;;;;;10.81;86.73;94496.72;5010537;28;20034;-75
2021/05/13 03:41:21;;;;;;;23.83;18.60;;;;;;;10.78;85.65;94492.03;5014282;28;20029;-76
2021/05/13 03:43:47;;;;;;;24.17;19.98;;;;;;;10.71;85.70;94486.44;5010503;28;20045;-75
2021/05/13 03:46:12;;;;;;;26.23;20.33;;;;;;;10.67;85.52;94497.72;5011838;28;20124;-75
2021/05/13 03:48:38;;;;;;;23.58;18.00;;;;;;;10.37;86.12;94488.91;5011816;28;20042;-75
2021/05/13 03:51:03;;;;;;;22.67;17.65;;;;;;;10.41;86.52;94502.34;5010518;28;20018;-75
2021/05/13 03:53:29;;;;;;;18.77;16.80;;;;;;;10.54;86.67;94540.47;5012199;28;20046;-75
2021/05/13 03:55:54;;;;;;;21.67;17.45;;;;;;;10.28;86.82;94485.50;5010597;28;20042;-76
2021/05/13 03:58:23;;;;;;;21.63;17.73;;;;;;;9.87;86.56;94449.59;5010155;28;20040;-73
2021/05/13 04:03:20;;;;;;;20.65;17.00;;;;;;;10.39;86.81;94508.00;5010939;28;20045;-75
2021/05/13 04:05:46;;;;;;;24.02;18.15;;;;;;;10.07;86.95;94439.41;5013134;28;20104;-75
2021/05/13 04:08:13;;;;;;;19.67;17.58;;;;;;;10.26;86.77;94460.34;5010049;28;20140;-74
2021/05/13 04:10:40;;;;;;;19.95;16.70;;;;;;;10.47;86.75;94534.88;5010539;28;20396;-75
2021/05/13 04:13:09;;;;;;;20.38;17.35;;;;;;;10.33;86.57;94519.88;5009326;28;20041;-75
2021/05/13 04:15:34;;;;;;;23.65;17.05;;;;;;;9.57;89.07;94506.34;5009837;28;20042;-75
2021/05/13 04:18:01;;;;;;;22.80;17.23;;;;;;;10.01;89.41;94545.09;5011434;28;20033;-76
2021/05/13 04:20:26;;;;;;;18.38;16.65;;;;;;;9.62;90.08;94485.75;5012919;28;20026;-74
2021/05/13 04:22:51;;;;;;;18.48;16.45;;;;;;;9.95;89.90;94541.03;5010657;28;20048;-74
2021/05/13 04:25:17;;;;;;;20.20;17.60;;;;;;;9.67;88.96;94470.72;5010965;28;20567;-74
2021/05/13 04:27:43;;;;;;;20.65;16.98;;;;;;;10.00;89.62;94516.19;5011174;28;20488;-74
2021/05/13 04:30:09;;;;;;;19.67;17.58;;;;;;;9.91;89.17;94518.84;5011323;28;20034;-74
2021/05/13 04:32:34;;;;;;;24.23;18.52;;;;;;;10.02;89.69;94500.69;5012988;28;20069;-74
2021/05/13 04:35:00;;;;;;;21.05;16.92;;;;;;;9.82;89.49;94515.41;5009783;28;20042;-74
2021/05/13 04:37:25;;;;;;;18.67;16.73;;;;;;;9.94;90.12;94541.34;5010987;28;20191;-75
2021/05/13 04:39:50;;;;;;;20.23;16.90;;;;;;;10.33;89.06;94527.06;5010947;28;20087;-75
2021/05/13 04:42:16;;;;;;;18.73;16.60;;;;;;;10.37;89.13;94536.75;5010496;28;20558;-73
2021/05/13 04:44:41;;;;;;;17.70;15.70;;;;;;;10.30;88.31;94531.16;5013005;28;20033;-75
2021/05/13 04:49:49;;;;;;;17.88;16.17;;;;;;;10.65;87.84;94541.72;5010866;28;20048;-75
2021/05/13 04:52:15;;;;;;;15.32;13.50;;;;;;;10.15;87.08;94513.03;5008916;28;20116;-74
2021/05/13 04:54:40;;;;;;;16.08;14.57;;;;;;;10.10;89.06;94537.09;5009319;28;20515;-75
2021/05/13 04:57:05;;;;;;;15.63;14.10;;;;;;;9.83;89.99;94530.28;5009508;28;20033;-75
2021/05/13 04:59:31;;;;;;;15.63;14.10;;;;;;;9.58;92.05;94524.63;5012527;28;20026;-74
2021/05/13 05:01:56;;;;;;;18.33;15.23;;;;;;;9.77;91.76;94524.31;5010437;28;20064;-74
2021/05/13 05:04:22;;;;;;;15.65;14.15;;;;;;;10.05;90.43;94526.66;5009958;28;20038;-74
2021/05/13 05:06:47;;;;;;;16.70;14.98;;;;;;;9.79;91.09;94524.00;5009343;28;20030;-74
2021/05/13 05:09:13;;;;;;;15.25;13.93;;;;;;;9.66;91.84;94522.28;5010343;28;20124;-76
2021/05/13 05:11:38;;;;;;;16.30;14.63;;;;;;;10.08;91.40;94548.06;5012726;28;20109;-82
2021/05/13 05:14:04;;;;;;;15.05;13.73;;;;;;;9.97;90.73;94549.47;5008388;28;20042;-74
2021/05/13 05:16:29;;;;;;;15.93;14.23;;;;;;;10.17;89.81;94532.09;5009946;28;20042;-72
2021/05/13 05:18:55;;;;;;;16.20;14.50;;;;;;;10.34;88.13;94499.41;5011146;28;20435;-79
2021/05/13 05:21:20;;;;;;;16.30;14.90;;;;;;;10.46;88.94;94535.97;5011164;28;20435;-72
2021/05/13 05:23:45;;;;;;;15.18;13.77;;;;;;;10.74;88.11;94541.66;5009993;28;20109;-73
2021/05/13 05:26:11;;;;;;;14.23;13.02;;;;;;;11.00;87.58;94530.91;5011537;28;20503;-74
2021/05/13 05:28:36;;;;;;;15.82;13.80;;;;;;;10.96;85.02;94525.47;5008615;28;20483;-74
2021/05/13 05:31:02;;;;;;;15.10;13.80;;;;;;;11.01;84.56;94514.63;5008430;28;20042;-78
2021/05/13 05:33:27;;;;;;;14.10;12.80;;;;;;;11.25;85.42;94506.03;5010547;28;20066;-74
2021/05/13 05:35:52;;;;;;;14.93;12.98;;;;;;;10.80;85.21;94525.22;5012131;28;20022;-72
2021/05/13 05:38:19;;;;;;;14.95;13.55;;;;;;;10.95;85.36;94534.53;5008537;28;20091;-72
2021/05/13 05:40:44;;;;;;;15.10;13.32;;;;;;;10.75;87.61;94521.94;5010340;28;20040;-72
2021/05/13 05:43:10;;;;;;;14.43;13.13;;;;;;;10.34;87.78;94526.78;5008229;28;20124;-76
2021/05/13 05:45:36;;;;;;;14.90;13.43;;;;;;;10.09;89.74;94493.03;5009922;28;20046;-70
2021/05/13 05:48:03;;;;;;;16.48;13.18;;;;;;;10.01;90.80;94523.81;5009361;28;20033;-69
2021/05/13 05:50:32;;;;;;;14.55;13.02;;;;;;;9.40;92.42;94477.94;5011864;28;20537;-76
2021/05/13 05:52:58;;;;;;;14.65;13.23;;;;;;;9.60;92.61;94471.22;5008221;28;20583;-72
2021/05/13 05:55:24;;;;;;;15.40;13.18;;;;;;;10.31;90.63;94519.44;5008917;28;20112;-74
2021/05/13 05:57:50;;;;;;;15.25;13.15;;;;;;;10.39;88.92;94478.75;5009096;28;20455;-78
2021/05/13 06:00:17;;;;;;;15.15;13.20;;;;;;;10.09;88.37;94435.34;5008185;28;20507;-74
2021/05/13 06:02:43;;;;;;;13.05;12.05;;;;;;;10.31;89.42;94468.91;5010959;28;20100;-76
2021/05/13 06:05:09;;;;;;;13.95;12.75;;;;;;;10.61;88.76;94524.81;5008895;28;20097;-68
2021/05/13 06:07:34;;;;;;;14.50;12.95;;;;;;;10.28;88.24;94490.03;5009092;28;20041;-71
2021/05/13 06:10:02;;;;;;;13.30;12.18;;;;;;;10.65;88.98;94529.19;5007906;28;20050;-75
2021/05/13 06:12:27;;;;;;;14.02;12.57;;;;;;;10.86;87.23;94528.47;5004457;28;20072;-74
2021/05/13 06:14:53;;;;;;;12.70;11.50;;;;;;;10.50;86.75;94519.06;5011046;28;20156;-72
2021/05/13 06:17:18;;;;;;;13.13;11.77;;;;;;;10.19;88.79;94490.03;5008595;28;20065;-74
2021/05/13 06:19:43;;;;;;;18.35;12.85;;;;;;;10.40;89.34;94527.38;5008291;28;20088;-72
2021/05/13 06:22:09;;;;;;;12.52;11.35;;;;;;;10.94;87.56;94515.13;5008614;28;20125;-72
2021/05/13 06:24:35;;;;;;;15.35;11.10;;;;;;;11.63;85.36;94507.81;5009527;28;20040;-73
2021/05/13 06:27:02;;;;;;;12.10;11.05;;;;;;;10.88;84.93;94521.72;5006605;28;20471;-74
2021/05/13 06:29:29;;;;;;;13.25;11.43;;;;;;;10.99;85.64;94522.13;5009986;28;20041;-72
2021/05/13 06:31:57;;;;;;;14.27;11.20;;;;;;;10.85;85.03;94524.22;5009223;28;20038;-77
2021/05/13 06:34:23;;;;;;;11.95;10.85;;;;;;;11.45;83.99;94512.47;5007301;28;20113;-75
2021/05/13 06:36:49;;;;;;;11.88;10.85;;;;;;;12.00;82.09;94521.31;5008947;28;20546;-76
2021/05/13 06:39:14;;;;;;;10.95;9.85;;;;;;;11.47;80.52;94496.19;5009264;28;20069;-75
2021/05/13 06:41:42;;;;;;;12.40;10.50;;;;;;;11.69;81.55;94520.59;5009813;28;20022;-74
2021/05/13 06:44:10;;;;;;;10.77;9.68;;;;;;;12.25;81.24;94530.19;5008839;28;20121;-68
2021/05/13 06:46:36;;;;;;;11.20;10.27;;;;;;;11.81;79.97;94469.25;5008398;28;20115;-72
2021/05/13 06:49:04;;;;;;;11.68;9.52;;;;;;;12.30;79.25;94521.97;5008293;28;20085;-71
2021/05/13 06:51:29;;;;;;;12.57;9.82;;;;;;;12.41;77.81;94509.78;5008418;28;20068;-76
2021/05/13 06:53:55;;;;;;;10.20;9.35;;;;;;;12.64;77.64;94438.09;5008428;28;20073;-76
2021/05/13 06:56:21;;;;;;;10.38;9.48;;;;;;;13.18;74.91;94499.25;5012865;28;20027;-78
2021/05/13 06:58:47;;;;;;;11.85;9.65;;;;;;;12.33;75.53;94490.09;5010334;28;20057;-78
2021/05/13 07:01:12;;;;;;;10.48;9.45;;;;;;;12.74;75.58;94520.38;5007819;28;20423;-76
2021/05/13 07:03:38;;;;;;;10.52;9.45;;;;;;;12.15;78.01;94532.16;5008428;28;20045;-75
2021/05/13 07:06:04;;;;;;;11.45;9.43;;;;;;;12.75;76.63;94532.63;5009397;28;20053;-77
2021/05/13 07:08:30;;;;;;;10.18;9.10;;;;;;;12.89;75.28;94497.59;5009228;28;20033;-73
2021/05/13 07:10:56;;;;;;;10.65;8.80;;;;;;;13.41;74.04;94529.78;5008685;28;20046;-67
2021/05/13 07:13:22;;;;;;;9.95;8.82;;;;;;;12.30;75.49;94489.97;5007823;28;20054;-68
2021/05/13 07:15:48;;;;;;;9.68;8.77;;;;;;;12.05;79.80;94518.47;5009360;28;20073;-86
2021/05/13 07:18:16;;;;;;;12.93;8.55;;;;;;;12.13;78.55;94528.25;5009459;28;20028;-83
2021/05/13 07:20:43;;;;;;;9.80;8.88;;;;;;;12.70;76.91;94517.63;5011183;28;20022;-73
2021/05/13 07:23:09;;;;;;;9.90;8.80;;;;;;;12.11;78.16;94522.47;5007092;28;20074;-76
2021/05/13 07:25:36;;;;;;;9.32;8.45;;;;;;;12.43;78.60;94529.66;5006215;28;20564;-71
2021/05/13 07:28:02;;;;;;;8.82;8.13;;;;;;;12.01;79.60;94509.56;5007335;28;20046;-67
2021/05/13 07:30:27;;;;;;;9.68;8.85;;;;;;;12.31;78.91;94518.97;5009458;28;20709;-73
2021/05/13 07:32:53;;;;;;;8.50;7.65;;;;;;;12.99;77.29;94515.84;5014286;28;20037;-72
2021/05/13 07:35:19;;;;;;;9.93;8.85;;;;;;;13.33;75.57;94511.97;5011799;28;20045;-82
2021/05/13 07:37:45;;;;;;;11.73;8.70;;;;;;;12.76;76.67;94510.16;5012831;28;20030;-73
2021/05/13 07:40:12;;;;;;;9.25;8.30;;;;;;;12.47;77.70;94516.47;5012139;28;20213;-77
2021/05/13 07:42:37;;;;;;;12.68;8.55;;;;;;;12.37;79.25;94523.00;5010704;28;20038;-79
2021/05/13 07:45:04;;;;;;;9.60;7.65;;;;;;;12.87;75.96;94519.28;5012197;28;20028;-69
2021/05/13 07:47:29;;;;;;;8.80;7.38;;;;;;;12.81;75.57;94514.50;5012905;28;20467;-78
2021/05/13 07:49:55;;;;;;;9.23;7.43;;;;;;;13.77;74.69;94512.09;5012601;28;20100;-82
2021/05/13 07:52:22;;;;;;;8.80;7.78;;;;;;;12.99;73.95;94518.50;5012704;28;20061;-73
2021/05/13 07:54:48;;;;;;;9.55;8.15;;;;;;;12.86;75.94;94512.41;5010528;28;20045;-78
2021/05/13 07:57:13;;;;;;;10.75;8.68;;;;;;;14.04;74.23;94514.00;5012794;28;20052;-78
2021/05/13 07:59:39;;;;;;;8.13;7.18;;;;;;;14.46;70.73;94507.44;5014172;28;20026;-81
2021/05/13 08:02:05;;;;;;;8.20;7.50;;;;;;;14.36;70.34;94516.75;5012004;28;20034;-73
2021/05/13 08:04:31;;;;;;;9.20;7.43;;;;;;;13.88;69.84;94488.34;5011345;28;20528;-71
2021/05/13 08:06:56;;;;;;;8.35;6.80;;;;;;;13.88;68.90;94513.19;5010130;28;20046;-75
2021/05/13 08:09:22;;;;;;;8.43;7.43;;;;;;;12.75;74.41;94505.94;5009985;28;20126;-71
2021/05/13 08:11:48;;;;;;;9.00;7.07;;;;;;;13.29;72.96;94511.06;5012085;28;20041;-76
2021/05/13 08:14:13;;;;;;;9.02;7.15;;;;;;;13.05;73.06;94513.72;5011408;28;20030;-75
2021/05/13 08:16:39;;;;;;;8.88;6.60;;;;;;;12.89;73.23;94519.72;5011437;28;20636;-76
2021/05/13 08:19:04;;;;;;;8.02;7.22;;;;;;;13.50;71.16;94506.34;5011231;28;20148;-72
2021/05/13 08:21:29;;;;;;;9.10;6.50;;;;;;;13.33;71.62;94482.59;5009587;28;20506;-70
2021/05/13 08:23:55;;;;;;;9.80;6.43;;;;;;;14.00;69.96;94505.09;5009236;28;20120;-69
2021/05/13 08:26:20;;;;;;;6.53;5.85;;;;;;;14.98;66.23;94509.13;5012948;28;20411;-69
2021/05/13 08:28:45;;;;;;;6.75;6.03;;;;;;;15.05;66.28;94504.72;5009480;28;20034;-69
2021/05/13 08:31:11;;;;;;;5.95;5.15;;;;;;;12.72;70.73;94506.59;5010847;28;20038;-68
2021/05/13 08:33:37;;;;;;;9.20;6.93;;;;;;;13.62;70.93;94510.13;5009068;28;20073;-77
2021/05/13 08:36:02;;;;;;;7.55;6.85;;;;;;;14.39;69.25;94494.66;5011232;28;20471;-76
2021/05/13 08:38:28;;;;;;;6.60;5.97;;;;;;;14.43;67.02;94505.44;5011462;28;20121;-71
2021/05/13 08:40:53;;;;;;;7.35;5.43;;;;;;;14.44;66.63;94499.00;5010136;28;20034;-73
2021/05/13 08:43:27;;;;;;;7.05;5.88;;;;;;;14.14;66.91;94498.59;5010248;28;20046;-76
2021/05/13 08:45:53;;;;;;;8.48;5.43;;;;;;;14.03;69.21;94493.72;5011322;28;20065;-78
2021/05/13 08:48:25;;;;;;;7.10;5.13;;;;;;;15.13;67.42;94484.22;5012115;28;20469;-80
2021/05/13 08:50:50;;;;;;;7.60;5.05;;;;;;;13.85;68.96;94487.13;5014465;28;20026;-80
2021/05/13 08:53:16;;;;;;;4.72;4.32;;;;;;;13.38;67.83;94500.28;5011169;28;20131;-79
2021/05/13 08:55:41;;;;;;;5.57;4.60;;;;;;;13.14;69.02;94480.47;5010487;28;20435;-77
2021/05/13 08:58:08;;;;;;;8.68;5.18;;;;;;;14.52;66.36;94482.78;5011448;28;20048;-76
2021/05/13 09:00:33;;;;;;;5.55;4.85;;;;;;;14.34;65.33;94481.53;5009993;28;20146;-79
2021/05/13 09:02:58;;;;;;;6.68;5.22;;;;;;;14.45;65.33;94477.25;5008837;28;20117;-72
2021/05/13 09:05:24;;;;;;;6.43;4.80;;;;;;;14.69;66.81;94481.69;5012512;28;20029;-73
2021/05/13 09:07:52;;;;;;;4.47;3.90;;;;;;;14.96;64.34;94481.94;5011135;28;20034;-69
2021/05/13 09:10:18;;;;;;;5.47;4.68;;;;;;;15.22;62.85;94478.69;5009750;28;20148;-73
2021/05/13 09:12:48;;;;;;;5.75;3.92;;;;;;;16.52;61.74;94492.41;5010376;28;20124;-74
2021/05/13 09:15:16;;;;;;;4.68;4.03;;;;;;;16.74;58.09;94487.47;5010452;28;20046;-75
2021/05/13 09:17:43;;;;;;;6.05;4.13;;;;;;;17.27;57.26;94472.16;5012173;28;20414;-72
2021/05/13 09:20:31;;;;;;;4.18;3.78;;;;;;;15.93;59.53;94466.81;5010265;28;20046;-75
2021/05/13 09:23:37;;;;;;;6.28;3.63;;;;;;;15.81;59.56;94477.66;5009669;28;20058;-76
2021/05/13 09:26:11;;;;;;;6.78;3.70;;;;;;;16.35;57.01;94466.03;5010205;28;20042;-77
2021/05/13 09:28:38;;;;;;;7.10;3.15;;;;;;;15.88;57.88;94475.13;5010183;28;20038;-71
2021/05/13 09:31:04;;;;;;;6.43;2.97;;;;;;;15.72;56.70;94466.38;5010564;28;20026;-73
2021/05/13 09:33:31;;;;;;;5.60;3.08;;;;;;;16.73;56.28;94473.22;5008298;28;20046;-75
2021/05/13 09:36:16;;;;;;;5.97;3.15;;;;;;;15.98;57.35;94477.25;5010122;28;20033;-69
2021/05/13 09:38:41;;;;;;;5.20;3.47;;;;;;;14.46;59.58;94476.09;5011808;28;20034;-73
2021/05/13 09:41:08;;;;;;;8.95;3.25;;;;;;;14.85;59.30;94479.00;5010162;28;20033;-71
2021/05/13 09:43:35;;;;;;;6.32;3.42;;;;;;;14.89;61.24;94468.38;5009893;28;20121;-75
2021/05/13 09:46:03;;;;;;;4.22;3.80;;;;;;;15.27;60.65;94465.81;5010086;28;20038;-73
2021/05/13 09:48:42;;;;;;;4.57;3.42;;;;;;;15.41;61.53;94467.25;5008858;28;20049;-68
2021/05/13 09:51:19;;;;;;;7.55;4.93;;;;;;;14.50;66.67;94471.66;5009353;28;20050;-70
2021/05/13 09:53:46;;;;;;;9.52;6.45;;;;;;;13.27;70.78;94468.69;5010223;28;20025;-73
2021/05/13 09:56:28;;;;;;;9.48;7.00;;;;;;;13.38;73.26;94485.03;5010148;28;20084;-71
2021/05/13 09:58:54;;;;;;;;;;;;;;;12.46;79.54;94494.34;5010712;28;20068;-75
2021/05/13 10:01:20;;;;;;;23.35;16.60;;;;;;;12.22;83.16;94487.06;5010084;28;19925;-72
2021/05/13 10:03:46;;;;;;;33.67;21.52;;;;;;;12.42;85.39;94436.66;5008369;28;20038;-78
2021/05/13 10:06:12;;;;;;;41.78;25.10;;;;;;;13.22;81.88;94465.47;5008481;28;20033;-70
2021/05/13 10:08:39;;;;;;;14.02;12.65;;;;;;;12.77;78.42;94463.69;5011449;28;20033;-70
2021/05/13 10:11:07;;;;;;;19.35;13.20;;;;;;;13.87;80.58;94452.00;5009628;28;20087;-68
2021/05/13 10:13:33;;;;;;;17.75;15.57;;;;;;;14.88;80.07;94434.69;5007430;28;20045;-69
2021/05/13 10:16:00;;;;;;;23.17;17.80;;;;;;;16.00;80.76;94461.56;5005944;28;20041;-72
2021/05/13 10:18:33;;;;;;;15.30;10.30;;;;;;;16.52;73.89;94446.00;5009025;28;20080;-71
2021/05/13 10:21:05;;;;;;;11.60;10.48;;;;;;;16.79;72.71;94436.91;5009404;28;20407;-76
2021/05/13 10:23:31;;;;;;;10.32;8.95;;;;;;;16.89;71.44;94436.28;5011067;28;20053;-82
2021/05/13 10:25:59;;;;;;;11.30;9.27;;;;;;;17.20;67.99;94436.31;5010494;28;20037;-78
2021/05/13 10:28:33;;;;;;;10.65;9.40;;;;;;;17.66;71.70;94437.72;5002725;28;20045;-72
2021/05/13 10:31:08;;;;;;;10.25;8.13;;;;;;;17.38;67.19;94405.88;5009782;28;20499;-73
2021/05/13 10:33:48;;;;;;;9.70;8.00;;;;;;;17.63;67.41;94441.13;5009334;28;20034;-76
2021/05/13 10:36:19;;;;;;;8.77;7.82;;;;;;;17.69;65.99;94412.00;5010124;28;20148;-80
2021/05/13 10:38:53;;;;;;;8.52;7.50;;;;;;;17.76;59.75;94438.22;5012248;28;20022;-75
2021/05/13 10:41:32;;;;;;;10.30;6.43;;;;;;;17.69;64.48;94441.59;5009393;28;20029;-77
2021/05/13 10:44:09;;;;;;;8.45;6.43;;;;;;;17.15;62.04;94432.84;5008907;28;20042;-75
2021/05/13 10:46:39;;;;;;;7.05;6.22;;;;;;;17.13;65.84;94435.09;5009426;28;20034;-76
2021/05/13 10:49:25;;;;;;;7.80;5.88;;;;;;;16.56;63.11;94436.09;5008380;28;20045;-77
2021/05/13 10:52:17;;;;;;;5.38;4.90;;;;;;;16.49;61.71;94434.09;5009386;28;20030;-74
2021/05/13 10:54:47;;;;;;;7.15;6.03;;;;;;;17.00;62.51;94431.06;5011070;28;20077;-81
2021/05/13 10:57:20;;;;;;;7.03;5.50;;;;;;;15.84;58.71;94426.00;5011451;28;20026;-82
2021/05/13 11:00:04;;;;;;;8.35;5.72;;;;;;;16.96;60.37;94426.78;5013185;28;20076;-83
2021/05/13 11:02:39;;;;;;;5.30;4.50;;;;;;;17.90;58.52;94416.88;5011220;28;20046;-82
2021/05/13 11:05:23;;;;;;;5.32;4.53;;;;;;;18.26;54.25;94418.03;5012627;28;20503;-81
2021/05/13 11:07:49;;;;;;;4.80;4.15;;;;;;;18.52;55.94;94406.31;5013648;28;20096;-80
2021/05/13 11:10:14;;;;;;;7.57;4.78;;;;;;;18.98;57.37;94415.94;5013475;28;20041;-80
2021/05/13 11:12:41;;;;;;;5.07;4.30;;;;;;;19.00;54.62;94416.38;5014405;28;20026;-77
2021/05/13 11:20:28;;;;;;;5.50;4.38;;;;;;;18.06;58.44;94420.13;5013983;28;20038;-80
2021/05/13 11:23:15;;;;;;;6.05;5.10;;;;;;;17.84;59.88;94418.34;5012956;28;20049;-80
2021/05/13 11:25:53;;;;;;;6.68;5.15;;;;;;;17.61;60.23;94415.75;5013421;28;20514;-79
2021/05/13 11:28:38;;;;;;;9.30;5.75;;;;;;;17.43;61.69;94420.91;5013388;28;20466;-78
2021/05/13 11:31:03;;;;;;;8.13;6.35;;;;;;;17.25;63.52;94417.19;5012302;28;20088;-78
2021/05/13 11:33:35;;;;;;;6.32;5.45;;;;;;;17.17;63.75;94419.03;5011389;28;20045;-78
2021/05/13 11:36:05;;;;;;;7.63;5.32;;;;;;;17.23;64.02;94419.47;5010865;28;20025;-77
2021/05/13 11:38:31;;;;;;;9.40;5.68;;;;;;;17.13;64.85;94388.63;5014161;28;20025;-75
2021/05/13 11:40:59;;;;;;;7.05;5.70;;;;;;;17.20;66.19;94401.38;5012189;28;20046;-78
2021/05/13 11:43:33;;;;;;;6.22;5.65;;;;;;;17.27;65.77;94414.94;5011918;28;20088;-77